^^
Datos históricos de la estación: Murcia-Puente Tocinos
Diario Informe para Abril 27, 2019 Unidades:  Ambas    Inglés   Métrico
Diario Semanal Mensual Anual Configurable
  Máximo: Mínimo: Media:
Temperatura: 73.6 °F /  23.1 °C 55.8 °F /  13.2 °C 64.2 °F /  17.9 °C
Punto de rocio: 51.3 °F /  10.7 °C 41.7 °F /  5.4 °C 46 °F /  7.8 °C
Humedad: 75% 37% 53%
Velocidad viento: 9.7mph /  15.6km/h - 5mph /  8km/h
Racha viento: 17.3mph /  27.8km/h - -
Viento- - SSE
Presión: 30.3 in /  1025.0 hPa 30.2 in /  1021.8 hPa -
Precipitación: 0 in /  0.0 mm    
Historical Graphs
 
 
Tabla de datos para Abril 27, 2019
Hora Temperatura Punto de rocio Presión Viento Velocidad viento Racha viento Humedad Intensidad lluvia(por hora) Nubes
00:00 61.7 °F /  16.5 °C 49.5 °F /  9.7 °C 30.2in /  1023.8hPa NE 2mph /  3.2km/h 3mph /  4.8km/h 64% 0in /  0.0mm CLR
00:05 61.5 °F /  16.4 °C 49.6 °F /  9.8 °C 30.2in /  1023.9hPa NE 1.8mph /  2.9km/h 3.5mph /  5.6km/h 65% 0in /  0.0mm CLR
00:10 61.3 °F /  16.3 °C 49.5 °F /  9.7 °C 30.2in /  1023.9hPa NE 1.8mph /  2.9km/h 2.3mph /  3.7km/h 65% 0in /  0.0mm CLR
00:15 61 °F /  16.1 °C 49.5 °F /  9.7 °C 30.2in /  1023.9hPa North 1.8mph /  2.9km/h 2.3mph /  3.7km/h 66% 0in /  0.0mm CLR
00:20 60.8 °F /  16.0 °C 49.5 °F /  9.7 °C 30.2in /  1023.9hPa North 1.4mph /  2.3km/h   66% 0in /  0.0mm CLR
00:25 60.4 °F /  15.8 °C 49.5 °F /  9.7 °C 30.2in /  1023.9hPa North 1.4mph /  2.3km/h 2.3mph /  3.7km/h 67% 0in /  0.0mm CLR
00:30 60.3 °F /  15.7 °C 49.3 °F /  9.6 °C 30.2in /  1023.9hPa North 1.4mph /  2.3km/h   67% 0in /  0.0mm CLR
00:35 60.1 °F /  15.6 °C 49.5 °F /  9.7 °C 30.2in /  1023.9hPa North 1.4mph /  2.3km/h 2.4mph /  3.9km/h 68% 0in /  0.0mm CLR
00:40 59.7 °F /  15.4 °C 49.5 °F /  9.7 °C 30.2in /  1023.9hPa North 1.4mph /  2.3km/h 2.3mph /  3.7km/h 69% 0in /  0.0mm CLR
00:45 59.5 °F /  15.3 °C 49.5 °F /  9.7 °C 30.2in /  1023.9hPa North 1.4mph /  2.3km/h   69% 0in /  0.0mm CLR
00:50 59.5 °F /  15.3 °C 49.5 °F /  9.7 °C 30.2in /  1023.9hPa Calm     69% 0in /  0.0mm CLR
00:55 59.4 °F /  15.2 °C 49.6 °F /  9.8 °C 30.2in /  1023.9hPa Calm     70% 0in /  0.0mm CLR
01:00 59.4 °F /  15.2 °C 50 °F /  10.0 °C 30.2in /  1023.9hPa Calm   4mph /  6.4km/h 71% 0in /  0.0mm CLR
01:05 59.4 °F /  15.2 °C 50.4 °F /  10.2 °C 30.2in /  1023.8hPa Calm   1.2mph /  1.9km/h 72% 0in /  0.0mm CLR
01:10 59.4 °F /  15.2 °C 50.4 °F /  10.2 °C 30.2in /  1023.8hPa West 1.8mph /  2.9km/h   72% 0in /  0.0mm CLR
01:15 59.4 °F /  15.2 °C 50.4 °F /  10.2 °C 30.2in /  1023.8hPa West 1.8mph /  2.9km/h 3.5mph /  5.6km/h 72% 0in /  0.0mm CLR
01:20 59.2 °F /  15.1 °C 50.5 °F /  10.3 °C 30.2in /  1023.9hPa West 2mph /  3.2km/h 4.6mph /  7.4km/h 73% 0in /  0.0mm CLR
01:25 59.2 °F /  15.1 °C 50.9 °F /  10.5 °C 30.2in /  1023.9hPa West 2mph /  3.2km/h 4.6mph /  7.4km/h 74% 0in /  0.0mm CLR
01:30 59.2 °F /  15.1 °C 51.3 °F /  10.7 °C 30.2in /  1023.9hPa West 3.1mph /  5.0km/h 4.6mph /  7.4km/h 75% 0in /  0.0mm CLR
01:35 59 °F /  15.0 °C 51.1 °F /  10.6 °C 30.2in /  1023.9hPa West 3.1mph /  5.0km/h 3.5mph /  5.6km/h 75% 0in /  0.0mm CLR
01:40 58.8 °F /  14.9 °C 50.9 °F /  10.5 °C 30.2in /  1023.9hPa WSW 2.9mph /  4.7km/h 3.5mph /  5.6km/h 75% 0in /  0.0mm CLR
01:45 59 °F /  15.0 °C 51.1 °F /  10.6 °C 30.2in /  1023.9hPa ESE 2.9mph /  4.7km/h 5.2mph /  8.4km/h 75% 0in /  0.0mm CLR
01:50 58.8 °F /  14.9 °C 50.5 °F /  10.3 °C 30.2in /  1023.9hPa SSE 2.4mph /  3.9km/h 5.8mph /  9.3km/h 74% 0in /  0.0mm CLR
01:55 58.5 °F /  14.7 °C 49.8 °F /  9.9 °C 30.2in /  1023.9hPa SSE 2.4mph /  3.9km/h 4.6mph /  7.4km/h 73% 0in /  0.0mm CLR
02:00 58.5 °F /  14.7 °C 49.8 °F /  9.9 °C 30.2in /  1023.9hPa SSE 3mph /  4.8km/h 6mph /  9.7km/h 73% 0in /  0.0mm CLR
02:05 58.8 °F /  14.9 °C 50.2 °F /  10.1 °C 30.2in /  1023.8hPa SW 3.6mph /  5.8km/h 5.8mph /  9.3km/h 73% 0in /  0.0mm CLR
02:10 59 °F /  15.0 °C 50.4 °F /  10.2 °C 30.2in /  1023.8hPa SW 3.6mph /  5.8km/h 4.6mph /  7.4km/h 73% 0in /  0.0mm CLR
02:15 59.2 °F /  15.1 °C 50.5 °F /  10.3 °C 30.2in /  1023.8hPa SW 3.6mph /  5.8km/h 4.6mph /  7.4km/h 73% 0in /  0.0mm CLR
02:20 59.4 °F /  15.2 °C 50.7 °F /  10.4 °C 30.2in /  1023.6hPa WSW 2.4mph /  3.9km/h 4.7mph /  7.6km/h 73% 0in /  0.0mm CLR
02:25 59.4 °F /  15.2 °C 50.7 °F /  10.4 °C 30.2in /  1023.6hPa SW 2.4mph /  3.9km/h 4.6mph /  7.4km/h 73% 0in /  0.0mm CLR
02:30 59.5 °F /  15.3 °C 50.9 °F /  10.5 °C 30.2in /  1023.6hPa SW 3.1mph /  5.0km/h 5.2mph /  8.4km/h 73% 0in /  0.0mm CLR
02:35 59.5 °F /  15.3 °C 50.9 °F /  10.5 °C 30.2in /  1023.6hPa SW 3.1mph /  5.0km/h 4.6mph /  7.4km/h 73% 0in /  0.0mm CLR
02:40 59.5 °F /  15.3 °C 50.9 °F /  10.5 °C 30.2in /  1023.6hPa SSW 2.4mph /  3.9km/h 4mph /  6.4km/h 73% 0in /  0.0mm CLR
02:45 59.4 °F /  15.2 °C 50.4 °F /  10.2 °C 30.2in /  1023.6hPa South 2.4mph /  3.9km/h 4.6mph /  7.4km/h 72% 0in /  0.0mm CLR
02:50 58.8 °F /  14.9 °C 49.5 °F /  9.7 °C 30.2in /  1023.5hPa SSE 2.9mph /  4.7km/h 5.8mph /  9.3km/h 71% 0in /  0.0mm CLR
02:55 58.5 °F /  14.7 °C 49.1 °F /  9.5 °C 30.2in /  1023.5hPa South 2.9mph /  4.7km/h 6.9mph /  11.1km/h 71% 0in /  0.0mm CLR
03:00 58.3 °F /  14.6 °C 48.6 °F /  9.2 °C 30.2in /  1023.5hPa South 5mph /  8.0km/h 8mph /  12.9km/h 70% 0in /  0.0mm CLR
03:05 57.9 °F /  14.4 °C 48.2 °F /  9.0 °C 30.2in /  1023.3hPa SSW 4.7mph /  7.6km/h 5.8mph /  9.3km/h 70% 0in /  0.0mm CLR
03:10 57.9 °F /  14.4 °C 48.2 °F /  9.0 °C 30.2in /  1023.3hPa SSW 4.7mph /  7.6km/h 6.9mph /  11.1km/h 70% 0in /  0.0mm CLR
03:15 57.9 °F /  14.4 °C 48.2 °F /  9.0 °C 30.2in /  1023.3hPa SSW 4.7mph /  7.6km/h 6.9mph /  11.1km/h 70% 0in /  0.0mm CLR
03:20 57.9 °F /  14.4 °C 48.2 °F /  9.0 °C 30.2in /  1023.2hPa SSE 5.4mph /  8.7km/h 8.1mph /  13.0km/h 70% 0in /  0.0mm CLR
03:25 57.6 °F /  14.2 °C 47.1 °F /  8.4 °C 30.2in /  1023.2hPa South 5.4mph /  8.7km/h 8.1mph /  13.0km/h 68% 0in /  0.0mm CLR
03:30 57.6 °F /  14.2 °C 46.8 °F /  8.2 °C 30.2in /  1023.2hPa SSW 6.2mph /  10.0km/h 10.4mph /  16.7km/h 67% 0in /  0.0mm CLR
03:35 57.4 °F /  14.1 °C 46 °F /  7.8 °C 30.2in /  1023.0hPa SSW 6.2mph /  10.0km/h 9.2mph /  14.8km/h 66% 0in /  0.0mm CLR
03:40 57.4 °F /  14.1 °C 45.7 °F /  7.6 °C 30.2in /  1023.0hPa SSW 6.9mph /  11.1km/h 8.1mph /  13.0km/h 65% 0in /  0.0mm CLR
03:45 57.6 °F /  14.2 °C 45.5 °F /  7.5 °C 30.2in /  1023.0hPa SSW 6.9mph /  11.1km/h 9.2mph /  14.8km/h 64% 0in /  0.0mm CLR
03:50 57.7 °F /  14.3 °C 45.1 °F /  7.3 °C 30.2in /  1022.9hPa SSW 5.4mph /  8.7km/h 8.1mph /  13.0km/h 63% 0in /  0.0mm CLR
03:55 57.9 °F /  14.4 °C 44.4 °F /  6.9 °C 30.2in /  1022.9hPa SSW 5.4mph /  8.7km/h 6.9mph /  11.1km/h 61% 0in /  0.0mm CLR
04:00 58.3 °F /  14.6 °C 44.4 °F /  6.9 °C 30.2in /  1022.9hPa SSW 5mph /  8.0km/h 8mph /  12.9km/h 60% 0in /  0.0mm CLR
04:05 58.5 °F /  14.7 °C 44.2 °F /  6.8 °C 30.2in /  1022.8hPa SSW 5.2mph /  8.4km/h 6.9mph /  11.1km/h 59% 0in /  0.0mm CLR
04:10 58.5 °F /  14.7 °C 43.7 °F /  6.5 °C 30.2in /  1022.8hPa SW 4.7mph /  7.6km/h 5.9mph /  9.5km/h 58% 0in /  0.0mm CLR
04:15 58.5 °F /  14.7 °C 43.7 °F /  6.5 °C 30.2in /  1022.8hPa SSW 4.7mph /  7.6km/h 5.8mph /  9.3km/h 58% 0in /  0.0mm CLR
04:20 58.5 °F /  14.7 °C 43.7 °F /  6.5 °C 30.2in /  1022.8hPa South 3.6mph /  5.8km/h 4.7mph /  7.6km/h 58% 0in /  0.0mm CLR
04:25 58.3 °F /  14.6 °C 44.1 °F /  6.7 °C 30.2in /  1022.8hPa SE 3.6mph /  5.8km/h 10.4mph /  16.7km/h 59% 0in /  0.0mm CLR
04:30 57.7 °F /  14.3 °C 43.9 °F /  6.6 °C 30.2in /  1022.8hPa South 5.4mph /  8.7km/h 10.4mph /  16.7km/h 60% 0in /  0.0mm CLR
04:35 57.6 °F /  14.2 °C 43.3 °F /  6.3 °C 30.2in /  1022.8hPa South 5.4mph /  8.7km/h 13.8mph /  22.2km/h 59% 0in /  0.0mm CLR
04:40 57.6 °F /  14.2 °C 43.3 °F /  6.3 °C 30.2in /  1022.8hPa SW 7.6mph /  12.2km/h 10.4mph /  16.7km/h 59% 0in /  0.0mm CLR
04:45 57.6 °F /  14.2 °C 43 °F /  6.1 °C 30.2in /  1022.8hPa South 7.6mph /  12.2km/h 10.4mph /  16.7km/h 58% 0in /  0.0mm CLR
04:50 57.7 °F /  14.3 °C 42.6 °F /  5.9 °C 30.2in /  1022.8hPa SW 6.2mph /  10.0km/h 8.1mph /  13.0km/h 57% 0in /  0.0mm CLR
04:55 57.9 °F /  14.4 °C 42.8 °F /  6.0 °C 30.2in /  1022.8hPa SSW 6.2mph /  10.0km/h 6.9mph /  11.1km/h 57% 0in /  0.0mm CLR
05:00 57.9 °F /  14.4 °C 42.4 °F /  5.8 °C 30.2in /  1022.8hPa SSW 6mph /  9.7km/h 9mph /  14.5km/h 56% 0in /  0.0mm CLR
05:05 58.3 °F /  14.6 °C 42.3 °F /  5.7 °C 30.2in /  1022.7hPa SW 5.4mph /  8.7km/h 6.9mph /  11.1km/h 55% 0in /  0.0mm CLR
05:10 58.3 °F /  14.6 °C 42.3 °F /  5.7 °C 30.2in /  1022.7hPa SW 5.2mph /  8.4km/h 4.6mph /  7.4km/h 55% 0in /  0.0mm CLR
05:15 58.5 °F /  14.7 °C 42.3 °F /  5.7 °C 30.2in /  1022.7hPa WSW 5.2mph /  8.4km/h 4.6mph /  7.4km/h 55% 0in /  0.0mm CLR
05:20 58.3 °F /  14.6 °C 42.3 °F /  5.7 °C 30.2in /  1022.8hPa WSW 3.6mph /  5.8km/h 2.3mph /  3.7km/h 55% 0in /  0.0mm CLR
05:25 58.3 °F /  14.6 °C 42.6 °F /  5.9 °C 30.2in /  1022.8hPa WSW 3.6mph /  5.8km/h 3.6mph /  5.8km/h 56% 0in /  0.0mm CLR
05:30 57.9 °F /  14.4 °C 42.3 °F /  5.7 °C 30.2in /  1022.8hPa WSW 2.4mph /  3.9km/h 6.9mph /  11.1km/h 56% 0in /  0.0mm CLR
05:35 57.7 °F /  14.3 °C 42.6 °F /  5.9 °C 30.2in /  1022.8hPa West 2.4mph /  3.9km/h 4.6mph /  7.4km/h 57% 0in /  0.0mm CLR
05:40 57.6 °F /  14.2 °C 42.1 °F /  5.6 °C 30.2in /  1022.8hPa SW 3.6mph /  5.8km/h 4.6mph /  7.4km/h 56% 0in /  0.0mm CLR
05:45 57.6 °F /  14.2 °C 42.4 °F /  5.8 °C 30.2in /  1022.8hPa West 3.6mph /  5.8km/h 4.6mph /  7.4km/h 57% 0in /  0.0mm CLR
05:50 57.2 °F /  14.0 °C 42.1 °F /  5.6 °C 30.2in /  1022.9hPa SW 3.1mph /  5.0km/h 6.9mph /  11.1km/h 57% 0in /  0.0mm CLR
05:55 57 °F /  13.9 °C 41.9 °F /  5.5 °C 30.2in /  1022.9hPa West 3.1mph /  5.0km/h 5.8mph /  9.3km/h 57% 0in /  0.0mm CLR
06:00 57 °F /  13.9 °C 42.4 °F /  5.8 °C 30.2in /  1022.9hPa WSW 5mph /  8.0km/h 6mph /  9.7km/h 58% 0in /  0.0mm CLR
06:05 57 °F /  13.9 °C 41.9 °F /  5.5 °C 30.2in /  1023.0hPa SW 4mph /  6.4km/h 6.9mph /  11.1km/h 57% 0in /  0.0mm CLR
06:10 57.2 °F /  14.0 °C 42.1 °F /  5.6 °C 30.2in /  1023.0hPa WSW 4.3mph /  6.9km/h 4.6mph /  7.4km/h 57% 0in /  0.0mm CLR
06:15 57 °F /  13.9 °C 41.9 °F /  5.5 °C 30.2in /  1023.0hPa WSW 4.3mph /  6.9km/h 6.9mph /  11.1km/h 57% 0in /  0.0mm CLR
06:20 57.4 °F /  14.1 °C 41.7 °F /  5.4 °C 30.2in /  1023.1hPa West 4.3mph /  6.9km/h 6.9mph /  11.1km/h 56% 0in /  0.0mm CLR
06:25 57.4 °F /  14.1 °C 41.7 °F /  5.4 °C 30.2in /  1023.1hPa WSW 4.3mph /  6.9km/h 4.6mph /  7.4km/h 56% 0in /  0.0mm CLR
06:30 57.2 °F /  14.0 °C 42.1 °F /  5.6 °C 30.2in /  1023.1hPa WSW 3.6mph /  5.8km/h 4.7mph /  7.6km/h 57% 0in /  0.0mm CLR
06:35 57 °F /  13.9 °C 41.9 °F /  5.5 °C 30.2in /  1023.2hPa SW 3.6mph /  5.8km/h 4.6mph /  7.4km/h 57% 0in /  0.0mm CLR
06:40 56.8 °F /  13.8 °C 42.3 °F /  5.7 °C 30.2in /  1023.2hPa West 3.6mph /  5.8km/h 5.8mph /  9.3km/h 58% 0in /  0.0mm CLR
06:45 56.5 °F /  13.6 °C 41.9 °F /  5.5 °C 30.2in /  1023.2hPa WSW 3.6mph /  5.8km/h 5.8mph /  9.3km/h 58% 0in /  0.0mm CLR
06:50 56.5 °F /  13.6 °C 41.9 °F /  5.5 °C 30.2in /  1023.4hPa WSW 3.6mph /  5.8km/h 5.8mph /  9.3km/h 58% 0in /  0.0mm CLR
06:55 56.5 °F /  13.6 °C 41.9 °F /  5.5 °C 30.2in /  1023.4hPa WSW 3.6mph /  5.8km/h 4mph /  6.4km/h 58% 0in /  0.0mm CLR
07:00 56.5 °F /  13.6 °C 41.9 °F /  5.5 °C 30.2in /  1023.4hPa WSW 2mph /  3.2km/h 5mph /  8.0km/h 58% 0in /  0.0mm CLR
07:05 56.3 °F /  13.5 °C 42.1 °F /  5.6 °C 30.2in /  1023.5hPa West 2.9mph /  4.7km/h 3.5mph /  5.6km/h 59% 0in /  0.0mm CLR
07:10 56.1 °F /  13.4 °C 42.4 °F /  5.8 °C 30.2in /  1023.5hPa West 2.4mph /  3.9km/h 4.6mph /  7.4km/h 60% 0in /  0.0mm CLR
07:15 55.9 °F /  13.3 °C 42.3 °F /  5.7 °C 30.2in /  1023.5hPa SSE 2.4mph /  3.9km/h 4.6mph /  7.4km/h 60% 0in /  0.0mm CLR
07:20 55.8 °F /  13.2 °C 42.4 °F /  5.8 °C 30.2in /  1023.6hPa SSE 2mph /  3.2km/h 2.4mph /  3.9km/h 61% 0in /  0.0mm CLR
07:25 55.8 °F /  13.2 °C 42.4 °F /  5.8 °C 30.2in /  1023.6hPa West 2mph /  3.2km/h 3.5mph /  5.6km/h 61% 0in /  0.0mm CLR
07:30 55.8 °F /  13.2 °C 42.4 °F /  5.8 °C 30.2in /  1023.6hPa West 2mph /  3.2km/h 3.5mph /  5.6km/h 61% 0in /  0.0mm CLR
07:35 55.9 °F /  13.3 °C 42.3 °F /  5.7 °C 30.2in /  1023.8hPa South 2mph /  3.2km/h 3.5mph /  5.6km/h 60% 0in /  0.0mm CLR
07:40 56.1 °F /  13.4 °C 42.4 °F /  5.8 °C 30.2in /  1023.8hPa South 2.4mph /  3.9km/h 2.4mph /  3.9km/h 60% 0in /  0.0mm CLR
07:45 56.3 °F /  13.5 °C 42.6 °F /  5.9 °C 30.2in /  1023.8hPa South 2.4mph /  3.9km/h 4.6mph /  7.4km/h 60% 0in /  0.0mm CLR
07:50 56.7 °F /  13.7 °C 42.4 °F /  5.8 °C 30.2in /  1024.0hPa SW 2.4mph /  3.9km/h 5.8mph /  9.3km/h 59% 0in /  0.0mm CLR
07:55 56.8 °F /  13.8 °C 42.6 °F /  5.9 °C 30.2in /  1024.0hPa SW 2.4mph /  3.9km/h 4.6mph /  7.4km/h 59% 0in /  0.0mm CLR
08:00 57 °F /  13.9 °C 42.8 °F /  6.0 °C 30.2in /  1024.0hPa SW 3mph /  4.8km/h 5mph /  8.0km/h 59% 0in /  0.0mm CLR
08:05 57.4 °F /  14.1 °C 42.6 °F /  5.9 °C 30.2in /  1024.2hPa WSW 3.1mph /  5.0km/h 4.6mph /  7.4km/h 58% 0in /  0.0mm CLR
08:10 57.6 °F /  14.2 °C 42.4 °F /  5.8 °C 30.2in /  1024.2hPa SW 2.9mph /  4.7km/h 4.6mph /  7.4km/h 57% 0in /  0.0mm CLR
08:15 57.7 °F /  14.3 °C 42.6 °F /  5.9 °C 30.2in /  1024.2hPa SW 2.9mph /  4.7km/h 4.6mph /  7.4km/h 57% 0in /  0.0mm CLR
08:20 57.9 °F /  14.4 °C 42.3 °F /  5.7 °C 30.2in /  1024.2hPa WSW 2.4mph /  3.9km/h 4.6mph /  7.4km/h 56% 0in /  0.0mm CLR
08:25 58.3 °F /  14.6 °C 42.6 °F /  5.9 °C 30.2in /  1024.2hPa WSW 2.4mph /  3.9km/h 4.6mph /  7.4km/h 56% 0in /  0.0mm CLR
08:30 58.5 °F /  14.7 °C 42.3 °F /  5.7 °C 30.2in /  1024.2hPa SW 2.9mph /  4.7km/h 5.8mph /  9.3km/h 55% 0in /  0.0mm CLR
08:35 58.6 °F /  14.8 °C 42.4 °F /  5.8 °C 30.3in /  1024.5hPa SW 2.9mph /  4.7km/h 5.8mph /  9.3km/h 55% 0in /  0.0mm CLR
08:40 58.6 °F /  14.8 °C 42.1 °F /  5.6 °C 30.3in /  1024.5hPa WSW 3.6mph /  5.8km/h 5.8mph /  9.3km/h 54% 0in /  0.0mm CLR
08:45 58.8 °F /  14.9 °C 42.3 °F /  5.7 °C 30.3in /  1024.5hPa WSW 3.6mph /  5.8km/h 5.8mph /  9.3km/h 54% 0in /  0.0mm CLR
08:50 59.2 °F /  15.1 °C 42.4 °F /  5.8 °C 30.3in /  1024.6hPa West 3.1mph /  5.0km/h 4.6mph /  7.4km/h 54% 0in /  0.0mm CLR
08:55 59.4 °F /  15.2 °C 42.6 °F /  5.9 °C 30.3in /  1024.6hPa South 3.1mph /  5.0km/h 4.6mph /  7.4km/h 54% 0in /  0.0mm CLR
09:00 59.7 °F /  15.4 °C 42.4 °F /  5.8 °C 30.3in /  1024.6hPa SSW 2mph /  3.2km/h 6mph /  9.7km/h 53% 0in /  0.0mm CLR
09:05 60.1 °F /  15.6 °C 43 °F /  6.1 °C 30.3in /  1024.8hPa SSW 2.9mph /  4.7km/h 5.8mph /  9.3km/h 53% 0in /  0.0mm CLR
09:10 60.3 °F /  15.7 °C 42.6 °F /  5.9 °C 30.3in /  1024.8hPa NW 3.6mph /  5.8km/h 5.8mph /  9.3km/h 52% 0in /  0.0mm CLR
09:15 60.4 °F /  15.8 °C 42.3 °F /  5.7 °C 30.3in /  1024.8hPa West 3.6mph /  5.8km/h 5.8mph /  9.3km/h 51% 0in /  0.0mm CLR
09:20 60.4 °F /  15.8 °C 41.7 °F /  5.4 °C 30.3in /  1024.8hPa WSW 5.2mph /  8.4km/h 6.9mph /  11.1km/h 50% 0in /  0.0mm CLR
09:25 60.6 °F /  15.9 °C 42.4 °F /  5.8 °C 30.3in /  1024.8hPa WSW 5.2mph /  8.4km/h 5.9mph /  9.5km/h 51% 0in /  0.0mm CLR
09:30 61 °F /  16.1 °C 41.7 °F /  5.4 °C 30.3in /  1024.8hPa WSW 4.3mph /  6.9km/h 7.4mph /  11.9km/h 49% 0in /  0.0mm CLR
09:35 61 °F /  16.1 °C 41.7 °F /  5.4 °C 30.3in /  1024.9hPa SSW 4.3mph /  6.9km/h 9.2mph /  14.8km/h 49% 0in /  0.0mm CLR
09:40 61.2 °F /  16.2 °C 41.7 °F /  5.4 °C 30.3in /  1024.9hPa SSW 5.2mph /  8.4km/h 5.8mph /  9.3km/h 49% 0in /  0.0mm CLR
09:45 61.3 °F /  16.3 °C 42.4 °F /  5.8 °C 30.3in /  1024.9hPa West 5.2mph /  8.4km/h 6.9mph /  11.1km/h 50% 0in /  0.0mm CLR
09:50 61.7 °F /  16.5 °C 42.3 °F /  5.7 °C 30.3in /  1024.8hPa West 4mph /  6.4km/h 5.8mph /  9.3km/h 49% 0in /  0.0mm CLR
09:55 61.9 °F /  16.6 °C 42.4 °F /  5.8 °C 30.3in /  1024.8hPa SW 4mph /  6.4km/h 5.8mph /  9.3km/h 49% 0in /  0.0mm CLR
10:00 62.1 °F /  16.7 °C 42.1 °F /  5.6 °C 30.3in /  1024.8hPa WSW 5mph /  8.0km/h 6mph /  9.7km/h 48% 0in /  0.0mm CLR
10:05 62.1 °F /  16.7 °C 42.1 °F /  5.6 °C 30.3in /  1024.8hPa SW 4mph /  6.4km/h 5.2mph /  8.4km/h 48% 0in /  0.0mm CLR
10:10 62.4 °F /  16.9 °C 42.4 °F /  5.8 °C 30.3in /  1024.8hPa West 3.1mph /  5.0km/h 4.6mph /  7.4km/h 48% 0in /  0.0mm CLR
10:15 62.8 °F /  17.1 °C 42.3 °F /  5.7 °C 30.3in /  1024.8hPa WNW 3.1mph /  5.0km/h 6.9mph /  11.1km/h 47% 0in /  0.0mm CLR
10:20 63 °F /  17.2 °C 43 °F /  6.1 °C 30.3in /  1024.8hPa ESE 4mph /  6.4km/h 4.6mph /  7.4km/h 48% 0in /  0.0mm CLR
10:25 63.5 °F /  17.5 °C 42.3 °F /  5.7 °C 30.3in /  1024.8hPa WNW 4mph /  6.4km/h 4.6mph /  7.4km/h 46% 0in /  0.0mm CLR
10:30 63.9 °F /  17.7 °C 42.1 °F /  5.6 °C 30.3in /  1024.8hPa West 2.4mph /  3.9km/h 5.8mph /  9.3km/h 45% 0in /  0.0mm CLR
10:35 63.9 °F /  17.7 °C 42.6 °F /  5.9 °C 30.3in /  1024.8hPa WNW 2.4mph /  3.9km/h 4.6mph /  7.4km/h 46% 0in /  0.0mm CLR
10:40 64 °F /  17.8 °C 42.8 °F /  6.0 °C 30.3in /  1024.8hPa WNW 2.4mph /  3.9km/h 4.6mph /  7.4km/h 46% 0in /  0.0mm CLR
10:45 64.4 °F /  18.0 °C 42.6 °F /  5.9 °C 30.3in /  1024.8hPa SW 2.4mph /  3.9km/h 6.9mph /  11.1km/h 45% 0in /  0.0mm CLR
10:50 64.4 °F /  18.0 °C 42.6 °F /  5.9 °C 30.3in /  1024.9hPa South 3.1mph /  5.0km/h 4.6mph /  7.4km/h 45% 0in /  0.0mm CLR
10:55 64.8 °F /  18.2 °C 42.3 °F /  5.7 °C 30.3in /  1024.9hPa East 3.1mph /  5.0km/h 4.6mph /  7.4km/h 44% 0in /  0.0mm CLR
11:00 65.1 °F /  18.4 °C 42.6 °F /  5.9 °C 30.3in /  1024.9hPa SE 2mph /  3.2km/h 3mph /  4.8km/h 44% 0in /  0.0mm CLR
11:05 65.8 °F /  18.8 °C 43.3 °F /  6.3 °C 30.3in /  1024.9hPa WSW 2.4mph /  3.9km/h 3.6mph /  5.8km/h 44% 0in /  0.0mm CLR
11:10 66 °F /  18.9 °C 43.5 °F /  6.4 °C 30.3in /  1024.9hPa NW 2mph /  3.2km/h 4.6mph /  7.4km/h 44% 0in /  0.0mm CLR
11:15 65.8 °F /  18.8 °C 42.6 °F /  5.9 °C 30.3in /  1024.9hPa NW 2mph /  3.2km/h 5.8mph /  9.3km/h 43% 0in /  0.0mm CLR
11:20 66 °F /  18.9 °C 43 °F /  6.1 °C 30.3in /  1024.9hPa NNE 3.1mph /  5.0km/h 2.3mph /  3.7km/h 43% 0in /  0.0mm CLR
11:25 66.7 °F /  19.3 °C 43 °F /  6.1 °C 30.3in /  1024.9hPa SSW 3.1mph /  5.0km/h 4.6mph /  7.4km/h 42% 0in /  0.0mm CLR
11:30 66.7 °F /  19.3 °C 43 °F /  6.1 °C 30.3in /  1024.9hPa ESE 2.4mph /  3.9km/h 4.6mph /  7.4km/h 42% 0in /  0.0mm CLR
11:35 67.1 °F /  19.5 °C 43.2 °F /  6.2 °C 30.3in /  1025.0hPa East 2.4mph /  3.9km/h 2.4mph /  3.9km/h 42% 0in /  0.0mm CLR
11:40 67.6 °F /  19.8 °C 43.7 °F /  6.5 °C 30.3in /  1025.0hPa WSW 2mph /  3.2km/h 4.6mph /  7.4km/h 42% 0in /  0.0mm CLR
11:45 67.8 °F /  19.9 °C 43.2 °F /  6.2 °C 30.3in /  1025.0hPa WNW 2mph /  3.2km/h 5.8mph /  9.3km/h 41% 0in /  0.0mm CLR
11:50 67.6 °F /  19.8 °C 43.2 °F /  6.2 °C 30.3in /  1025.0hPa WNW 2.9mph /  4.7km/h 4.6mph /  7.4km/h 41% 0in /  0.0mm CLR
11:55 67.5 °F /  19.7 °C 43 °F /  6.1 °C 30.3in /  1025.0hPa West 2.9mph /  4.7km/h 4.7mph /  7.6km/h 41% 0in /  0.0mm CLR
12:00 67.5 °F /  19.7 °C 43 °F /  6.1 °C 30.3in /  1025.0hPa NW 3mph /  4.8km/h 5mph /  8.0km/h 41% 0in /  0.0mm CLR
12:05 67.8 °F /  19.9 °C 43.2 °F /  6.2 °C 30.3in /  1024.9hPa WNW 3.1mph /  5.0km/h 4.6mph /  7.4km/h 41% 0in /  0.0mm CLR
12:10 68.2 °F /  20.1 °C 43.5 °F /  6.4 °C 30.3in /  1024.9hPa WNW 3.1mph /  5.0km/h 2.3mph /  3.7km/h 41% 0in /  0.0mm CLR
12:15 68.9 °F /  20.5 °C 44.2 °F /  6.8 °C 30.3in /  1024.9hPa East 3.1mph /  5.0km/h 3.6mph /  5.8km/h 41% 0in /  0.0mm CLR
12:20 69.4 °F /  20.8 °C 44.1 °F /  6.7 °C 30.3in /  1024.8hPa ESE 1.8mph /  2.9km/h 4.6mph /  7.4km/h 40% 0in /  0.0mm CLR
12:25 69.4 °F /  20.8 °C 44.1 °F /  6.7 °C 30.3in /  1024.8hPa East 1.8mph /  2.9km/h 9.2mph /  14.8km/h 40% 0in /  0.0mm CLR
12:30 69.6 °F /  20.9 °C 44.2 °F /  6.8 °C 30.3in /  1024.8hPa ENE 4mph /  6.4km/h 6.9mph /  11.1km/h 40% 0in /  0.0mm CLR
12:35 69.6 °F /  20.9 °C 44.2 °F /  6.8 °C 30.3in /  1024.8hPa ENE 4mph /  6.4km/h 10.4mph /  16.7km/h 40% 0in /  0.0mm CLR
12:40 69.6 °F /  20.9 °C 44.2 °F /  6.8 °C 30.3in /  1024.8hPa East 5.4mph /  8.7km/h 6.9mph /  11.1km/h 40% 0in /  0.0mm CLR
12:45 69.4 °F /  20.8 °C 44.8 °F /  7.1 °C 30.3in /  1024.8hPa NE 5.4mph /  8.7km/h 9.2mph /  14.8km/h 41% 0in /  0.0mm CLR
12:50 69.4 °F /  20.8 °C 44.1 °F /  6.7 °C 30.3in /  1024.7hPa NE 6.2mph /  10.0km/h 7.4mph /  11.9km/h 40% 0in /  0.0mm CLR
12:55 69.8 °F /  21.0 °C 43.7 °F /  6.5 °C 30.3in /  1024.7hPa NE 6.2mph /  10.0km/h 10.4mph /  16.7km/h 39% 0in /  0.0mm CLR
13:00 70.2 °F /  21.2 °C 43.3 °F /  6.3 °C 30.3in /  1024.7hPa ENE 6mph /  9.7km/h 12mph /  19.3km/h 38% 0in /  0.0mm CLR
13:05 70 °F /  21.1 °C 44.4 °F /  6.9 °C 30.3in /  1024.5hPa NNW 5.9mph /  9.5km/h 9.2mph /  14.8km/h 40% 0in /  0.0mm CLR
13:10 70.2 °F /  21.2 °C 44.8 °F /  7.1 °C 30.3in /  1024.5hPa NE 6.2mph /  10.0km/h 10.4mph /  16.7km/h 40% 0in /  0.0mm CLR
13:15 70.2 °F /  21.2 °C 44.8 °F /  7.1 °C 30.3in /  1024.5hPa NE 6.2mph /  10.0km/h 12.7mph /  20.4km/h 40% 0in /  0.0mm CLR
13:20 70.2 °F /  21.2 °C 44.8 °F /  7.1 °C 30.3in /  1024.3hPa NE 5.9mph /  9.5km/h 12.7mph /  20.4km/h 40% 0in /  0.0mm CLR
13:25 70.5 °F /  21.4 °C 45 °F /  7.2 °C 30.3in /  1024.3hPa ENE 5.9mph /  9.5km/h 5.2mph /  8.4km/h 40% 0in /  0.0mm CLR
13:30 70.9 °F /  21.6 °C 45.3 °F /  7.4 °C 30.3in /  1024.3hPa NE 5.4mph /  8.7km/h 6.9mph /  11.1km/h 40% 0in /  0.0mm CLR
13:35 71.2 °F /  21.8 °C 45 °F /  7.2 °C 30.3in /  1024.3hPa ESE 5.4mph /  8.7km/h 8.1mph /  13.0km/h 39% 0in /  0.0mm CLR
13:40 71.4 °F /  21.9 °C 45.1 °F /  7.3 °C 30.3in /  1024.3hPa ENE 4.7mph /  7.6km/h 11.5mph /  18.5km/h 39% 0in /  0.0mm CLR
13:45 71.4 °F /  21.9 °C 45.9 °F /  7.7 °C 30.3in /  1024.3hPa ENE 4.7mph /  7.6km/h 12.5mph /  20.1km/h 40% 0in /  0.0mm CLR
13:50 71.2 °F /  21.8 °C 45 °F /  7.2 °C 30.2in /  1024.0hPa NNE 6.9mph /  11.1km/h 12.7mph /  20.4km/h 39% 0in /  0.0mm CLR
13:55 71.4 °F /  21.9 °C 46.6 °F /  8.1 °C 30.2in /  1024.0hPa NE 6.9mph /  11.1km/h 10.4mph /  16.7km/h 41% 0in /  0.0mm CLR
14:00 71.4 °F /  21.9 °C 45.9 °F /  7.7 °C 30.2in /  1024.0hPa NE 7mph /  11.3km/h 12mph /  19.3km/h 40% 0in /  0.0mm CLR
14:05 71.4 °F /  21.9 °C 45.9 °F /  7.7 °C 30.2in /  1023.8hPa NE 6.4mph /  10.3km/h 10.4mph /  16.7km/h 40% 0in /  0.0mm CLR
14:10 71.4 °F /  21.9 °C 46.6 °F /  8.1 °C 30.2in /  1023.8hPa NNE 5.4mph /  8.7km/h 6.9mph /  11.1km/h 41% 0in /  0.0mm CLR
14:15 71.6 °F /  22.0 °C 46.6 °F /  8.1 °C 30.2in /  1023.8hPa ENE 5.4mph /  8.7km/h 12.5mph /  20.1km/h 41% 0in /  0.0mm CLR
14:20 72 °F /  22.2 °C 46.2 °F /  7.9 °C 30.2in /  1023.6hPa NNE 6.9mph /  11.1km/h 9.2mph /  14.8km/h 40% 0in /  0.0mm CLR
14:25 72 °F /  22.2 °C 45.7 °F /  7.6 °C 30.2in /  1023.6hPa NE 6.9mph /  11.1km/h 6.9mph /  11.1km/h 39% 0in /  0.0mm CLR
14:30 72 °F /  22.2 °C 45.7 °F /  7.6 °C 30.2in /  1023.6hPa NE 6.2mph /  10.0km/h 12.7mph /  20.4km/h 39% 0in /  0.0mm CLR
14:35 72 °F /  22.2 °C 45.7 °F /  7.6 °C 30.2in /  1023.5hPa East 6.2mph /  10.0km/h 11.5mph /  18.5km/h 39% 0in /  0.0mm CLR
14:40 72.3 °F /  22.4 °C 46.6 °F /  8.1 °C 30.2in /  1023.5hPa ESE 6.9mph /  11.1km/h 11.2mph /  18.0km/h 40% 0in /  0.0mm CLR
14:45 72.7 °F /  22.6 °C 46.2 °F /  7.9 °C 30.2in /  1023.5hPa NNE 6.9mph /  11.1km/h 11.5mph /  18.5km/h 39% 0in /  0.0mm CLR
14:50 72.5 °F /  22.5 °C 46 °F /  7.8 °C 30.2in /  1023.5hPa WNW 6.2mph /  10.0km/h 8.1mph /  13.0km/h 39% 0in /  0.0mm CLR
14:55 72.7 °F /  22.6 °C 46.9 °F /  8.3 °C 30.2in /  1023.5hPa NNE 6.2mph /  10.0km/h 10.4mph /  16.7km/h 40% 0in /  0.0mm CLR
15:00 72.9 °F /  22.7 °C 47.1 °F /  8.4 °C 30.2in /  1023.5hPa NE 6mph /  9.7km/h 14mph /  22.5km/h 40% 0in /  0.0mm CLR
15:05 73 °F /  22.8 °C 47.3 °F /  8.5 °C 30.2in /  1023.4hPa NE 5.9mph /  9.5km/h 10.4mph /  16.7km/h 40% 0in /  0.0mm CLR
15:10 72.9 °F /  22.7 °C 47.1 °F /  8.4 °C 30.2in /  1023.4hPa NE 7.6mph /  12.2km/h 13mph /  20.9km/h 40% 0in /  0.0mm CLR
15:15 72.3 °F /  22.4 °C 46 °F /  7.8 °C 30.2in /  1023.4hPa NE 7.6mph /  12.2km/h 12.7mph /  20.4km/h 39% 0in /  0.0mm CLR
15:20 72.5 °F /  22.5 °C 46.8 °F /  8.2 °C 30.2in /  1023.3hPa ENE 8.7mph /  14.0km/h 11.5mph /  18.5km/h 40% 0in /  0.0mm CLR
15:25 72.7 °F /  22.6 °C 46.2 °F /  7.9 °C 30.2in /  1023.3hPa ENE 8.7mph /  14.0km/h 11.5mph /  18.5km/h 39% 0in /  0.0mm CLR
15:30 72.7 °F /  22.6 °C 46.2 °F /  7.9 °C 30.2in /  1023.3hPa ENE 7.4mph /  11.9km/h 6.9mph /  11.1km/h 39% 0in /  0.0mm CLR
15:35 72.7 °F /  22.6 °C 46.2 °F /  7.9 °C 30.2in /  1023.1hPa ENE 7.4mph /  11.9km/h 13.8mph /  22.2km/h 39% 0in /  0.0mm CLR
15:40 72.7 °F /  22.6 °C 46.9 °F /  8.3 °C 30.2in /  1023.1hPa East 8.1mph /  13.0km/h 11.5mph /  18.5km/h 40% 0in /  0.0mm CLR
15:45 72.7 °F /  22.6 °C 47.7 °F /  8.7 °C 30.2in /  1023.1hPa East 8.1mph /  13.0km/h 13.8mph /  22.2km/h 41% 0in /  0.0mm CLR
15:50 72.7 °F /  22.6 °C 47.7 °F /  8.7 °C 30.2in /  1023.0hPa West 8.7mph /  14.0km/h 11.5mph /  18.5km/h 41% 0in /  0.0mm CLR
15:55 72.7 °F /  22.6 °C 46.9 °F /  8.3 °C 30.2in /  1023.0hPa NE 8.7mph /  14.0km/h 9.2mph /  14.8km/h 40% 0in /  0.0mm CLR
16:00 72.9 °F /  22.7 °C 47.8 °F /  8.8 °C 30.2in /  1023.0hPa NE 8mph /  12.9km/h 14mph /  22.5km/h 41% 0in /  0.0mm CLR
16:05 72.9 °F /  22.7 °C 46.4 °F /  8.0 °C 30.2in /  1022.8hPa NE 8.5mph /  13.7km/h 13.8mph /  22.2km/h 39% 0in /  0.0mm CLR
16:10 72.7 °F /  22.6 °C 47.7 °F /  8.7 °C 30.2in /  1022.8hPa ENE 8.1mph /  13.0km/h 16.1mph /  25.9km/h 41% 0in /  0.0mm CLR
16:15 72.3 °F /  22.4 °C 46.6 °F /  8.1 °C 30.2in /  1022.8hPa NE 8.1mph /  13.0km/h 13.8mph /  22.2km/h 40% 0in /  0.0mm CLR
16:20 72.1 °F /  22.3 °C 46.6 °F /  8.1 °C 30.2in /  1022.6hPa NE 9.7mph /  15.6km/h 10.4mph /  16.7km/h 40% 0in /  0.0mm CLR
16:25 72.3 °F /  22.4 °C 46.6 °F /  8.1 °C 30.2in /  1022.6hPa ENE 9.7mph /  15.6km/h 10.4mph /  16.7km/h 40% 0in /  0.0mm CLR
16:30 72.9 °F /  22.7 °C 47.1 °F /  8.4 °C 30.2in /  1022.6hPa NE 6.4mph /  10.3km/h 9.2mph /  14.8km/h 40% 0in /  0.0mm CLR
16:35 73 °F /  22.8 °C 47.3 °F /  8.5 °C 30.2in /  1022.3hPa East 6.4mph /  10.3km/h 12.7mph /  20.4km/h 40% 0in /  0.0mm CLR
16:40 72.9 °F /  22.7 °C 46.4 °F /  8.0 °C 30.2in /  1022.3hPa NE 7.4mph /  11.9km/h 9.2mph /  14.8km/h 39% 0in /  0.0mm CLR
16:45 73 °F /  22.8 °C 46.6 °F /  8.1 °C 30.2in /  1022.3hPa ESE 7.4mph /  11.9km/h 11.2mph /  18.0km/h 39% 0in /  0.0mm CLR
16:50 73 °F /  22.8 °C 46.6 °F /  8.1 °C 30.2in /  1022.3hPa ENE 7.6mph /  12.2km/h 8.1mph /  13.0km/h 39% 0in /  0.0mm CLR
16:55 73.6 °F /  23.1 °C 47.1 °F /  8.4 °C 30.2in /  1022.3hPa ENE 7.6mph /  12.2km/h 17.3mph /  27.8km/h 39% 0in /  0.0mm CLR
17:00 73.6 °F /  23.1 °C 47.1 °F /  8.4 °C 30.2in /  1022.3hPa ENE 6mph /  9.7km/h 16mph /  25.7km/h 39% 0in /  0.0mm CLR
17:05 73 °F /  22.8 °C 46.6 °F /  8.1 °C 30.2in /  1022.1hPa ESE 5.9mph /  9.5km/h 17.3mph /  27.8km/h 39% 0in /  0.0mm CLR
17:10 72.5 °F /  22.5 °C 46.8 °F /  8.2 °C 30.2in /  1022.1hPa SE 8.5mph /  13.7km/h 11.5mph /  18.5km/h 40% 0in /  0.0mm CLR
17:15 72.5 °F /  22.5 °C 46 °F /  7.8 °C 30.2in /  1022.1hPa SE 8.5mph /  13.7km/h 15mph /  24.1km/h 39% 0in /  0.0mm CLR
17:20 72.3 °F /  22.4 °C 46 °F /  7.8 °C 30.2in /  1022.0hPa SE 9.2mph /  14.8km/h 12.7mph /  20.4km/h 39% 0in /  0.0mm CLR
17:25 72.7 °F /  22.6 °C 45.7 °F /  7.6 °C 30.2in /  1022.0hPa SSE 9.2mph /  14.8km/h 12.3mph /  19.8km/h 38% 0in /  0.0mm CLR
17:30 72.9 °F /  22.7 °C 45.9 °F /  7.7 °C 30.2in /  1022.0hPa SE 8.5mph /  13.7km/h 12.7mph /  20.4km/h 38% 0in /  0.0mm CLR
17:35 72.9 °F /  22.7 °C 45.9 °F /  7.7 °C 30.2in /  1022.0hPa ESE 8.5mph /  13.7km/h 12.7mph /  20.4km/h 38% 0in /  0.0mm CLR
17:40 72.9 °F /  22.7 °C 45.1 °F /  7.3 °C 30.2in /  1022.0hPa East 8.1mph /  13.0km/h 11.5mph /  18.5km/h 37% 0in /  0.0mm CLR
17:45 72.9 °F /  22.7 °C 45.9 °F /  7.7 °C 30.2in /  1022.0hPa ESE 8.1mph /  13.0km/h 15mph /  24.1km/h 38% 0in /  0.0mm CLR
17:50 72.9 °F /  22.7 °C 45.1 °F /  7.3 °C 30.2in /  1021.9hPa SE 8.1mph /  13.0km/h 13.8mph /  22.2km/h 37% 0in /  0.0mm CLR
17:55 72.7 °F /  22.6 °C 45 °F /  7.2 °C 30.2in /  1021.9hPa SSE 8.1mph /  13.0km/h 12.7mph /  20.4km/h 37% 0in /  0.0mm CLR
18:00 72.7 °F /  22.6 °C 45.7 °F /  7.6 °C 30.2in /  1021.9hPa SE 8mph /  12.9km/h 14mph /  22.5km/h 38% 0in /  0.0mm CLR
18:05 72.7 °F /  22.6 °C 45.7 °F /  7.6 °C 30.2in /  1021.9hPa SE 8.5mph /  13.7km/h 11.5mph /  18.5km/h 38% 0in /  0.0mm CLR
18:10 72.9 °F /  22.7 °C 45.9 °F /  7.7 °C 30.2in /  1021.9hPa SSE 8.1mph /  13.0km/h 13.8mph /  22.2km/h 38% 0in /  0.0mm CLR
18:15 72.7 °F /  22.6 °C 45.7 °F /  7.6 °C 30.2in /  1021.9hPa ESE 8.1mph /  13.0km/h 10.4mph /  16.7km/h 38% 0in /  0.0mm CLR
18:20 72.9 °F /  22.7 °C 45.9 °F /  7.7 °C 30.2in /  1021.8hPa SE 7.4mph /  11.9km/h 16.1mph /  25.9km/h 38% 0in /  0.0mm CLR
18:25 72.1 °F /  22.3 °C 45.9 °F /  7.7 °C 30.2in /  1021.8hPa SE 7.4mph /  11.9km/h 12.7mph /  20.4km/h 39% 0in /  0.0mm CLR
18:30 72 °F /  22.2 °C 45.7 °F /  7.6 °C 30.2in /  1021.8hPa SE 9.7mph /  15.6km/h 10.4mph /  16.7km/h 39% 0in /  0.0mm CLR
18:35 72.3 °F /  22.4 °C 46 °F /  7.8 °C 30.2in /  1021.9hPa ESE 9.7mph /  15.6km/h 11.5mph /  18.5km/h 39% 0in /  0.0mm CLR
18:40 72.7 °F /  22.6 °C 46.2 °F /  7.9 °C 30.2in /  1021.9hPa SSE 6.4mph /  10.3km/h 10.4mph /  16.7km/h 39% 0in /  0.0mm CLR
18:45 72.3 °F /  22.4 °C 46 °F /  7.8 °C 30.2in /  1021.9hPa SSE 6.4mph /  10.3km/h 10.4mph /  16.7km/h 39% 0in /  0.0mm CLR
18:50 72.1 °F /  22.3 °C 45.9 °F /  7.7 °C 30.2in /  1021.9hPa SSE 8.1mph /  13.0km/h 12.7mph /  20.4km/h 39% 0in /  0.0mm CLR
18:55 72 °F /  22.2 °C 46.2 °F /  7.9 °C 30.2in /  1021.9hPa SSE 8.1mph /  13.0km/h 12.7mph /  20.4km/h 40% 0in /  0.0mm CLR
19:00 71.8 °F /  22.1 °C 46.2 °F /  7.9 °C 30.2in /  1021.9hPa SE 8mph /  12.9km/h 13mph /  20.9km/h 40% 0in /  0.0mm CLR
19:05 72 °F /  22.2 °C 46.2 °F /  7.9 °C 30.2in /  1021.9hPa SE 8.5mph /  13.7km/h 10.4mph /  16.7km/h 40% 0in /  0.0mm CLR
19:10 71.8 °F /  22.1 °C 46.8 °F /  8.2 °C 30.2in /  1021.9hPa ESE 6.9mph /  11.1km/h 11.5mph /  18.5km/h 41% 0in /  0.0mm CLR
19:15 71.8 °F /  22.1 °C 46.8 °F /  8.2 °C 30.2in /  1021.9hPa East 6.9mph /  11.1km/h 9.2mph /  14.8km/h 41% 0in /  0.0mm CLR
19:20 71.8 °F /  22.1 °C 46.2 °F /  7.9 °C 30.2in /  1022.0hPa SE 6.4mph /  10.3km/h 11.5mph /  18.5km/h 40% 0in /  0.0mm CLR
19:25 71.8 °F /  22.1 °C 47.5 °F /  8.6 °C 30.2in /  1022.0hPa ESE 6.4mph /  10.3km/h 9.2mph /  14.8km/h 42% 0in /  0.0mm CLR
19:30 71.4 °F /  21.9 °C 47.1 °F /  8.4 °C 30.2in /  1022.0hPa East 6.4mph /  10.3km/h 9.2mph /  14.8km/h 42% 0in /  0.0mm CLR
19:35 71.1 °F /  21.7 °C 46.8 °F /  8.2 °C 30.2in /  1021.9hPa ESE 6.4mph /  10.3km/h 11.5mph /  18.5km/h 42% 0in /  0.0mm CLR
19:40 71.1 °F /  21.7 °C 46.8 °F /  8.2 °C 30.2in /  1021.9hPa SE 7.4mph /  11.9km/h 8.1mph /  13.0km/h 42% 0in /  0.0mm CLR
19:45 71.1 °F /  21.7 °C 47.5 °F /  8.6 °C 30.2in /  1021.9hPa ESE 7.4mph /  11.9km/h 9.7mph /  15.6km/h 43% 0in /  0.0mm CLR
19:50 70.9 °F /  21.6 °C 47.3 °F /  8.5 °C 30.2in /  1021.9hPa SE 6.2mph /  10.0km/h 12.7mph /  20.4km/h 43% 0in /  0.0mm CLR
19:55 70.3 °F /  21.3 °C 48 °F /  8.9 °C 30.2in /  1021.9hPa SE 6.2mph /  10.0km/h 10.4mph /  16.7km/h 45% 0in /  0.0mm CLR
20:00 70.3 °F /  21.3 °C 48 °F /  8.9 °C 30.2in /  1021.9hPa ESE 7mph /  11.3km/h 10mph /  16.1km/h 45% 0in /  0.0mm CLR
20:05 70.3 °F /  21.3 °C 48.6 °F /  9.2 °C 30.2in /  1021.9hPa ESE 6.9mph /  11.1km/h 10.2mph /  16.4km/h 46% 0in /  0.0mm CLR
20:10 70 °F /  21.1 °C 48.7 °F /  9.3 °C 30.2in /  1021.9hPa SE 5.9mph /  9.5km/h 10.4mph /  16.7km/h 47% 0in /  0.0mm CLR
20:15 69.6 °F /  20.9 °C 49.1 °F /  9.5 °C 30.2in /  1021.9hPa East 5.9mph /  9.5km/h 8.1mph /  13.0km/h 48% 0in /  0.0mm CLR
20:20 69.3 °F /  20.7 °C 49.3 °F /  9.6 °C 30.2in /  1021.9hPa ESE 5.2mph /  8.4km/h 6.9mph /  11.1km/h 49% 0in /  0.0mm CLR
20:25 68.7 °F /  20.4 °C 48.7 °F /  9.3 °C 30.2in /  1021.9hPa East 5.2mph /  8.4km/h 8.1mph /  13.0km/h 49% 0in /  0.0mm CLR
20:30 68.5 °F /  20.3 °C 49.3 °F /  9.6 °C 30.2in /  1021.9hPa North 5.2mph /  8.4km/h 5.8mph /  9.3km/h 50% 0in /  0.0mm CLR
20:35 68.4 °F /  20.2 °C 49.5 °F /  9.7 °C 30.2in /  1022.0hPa NE 5.2mph /  8.4km/h 5.9mph /  9.5km/h 51% 0in /  0.0mm CLR
20:40 68.2 °F /  20.1 °C 50.4 °F /  10.2 °C 30.2in /  1022.0hPa NE 5.2mph /  8.4km/h 6.9mph /  11.1km/h 53% 0in /  0.0mm CLR
20:45 67.3 °F /  19.6 °C 50.5 °F /  10.3 °C 30.2in /  1022.0hPa NE 5.2mph /  8.4km/h 10.4mph /  16.7km/h 55% 0in /  0.0mm CLR
20:50 66.7 °F /  19.3 °C 50.2 °F /  10.1 °C 30.2in /  1022.2hPa NNE 7.4mph /  11.9km/h 8.1mph /  13.0km/h 55% 0in /  0.0mm CLR
20:55 66.4 °F /  19.1 °C 50.2 °F /  10.1 °C 30.2in /  1022.2hPa NNW 7.4mph /  11.9km/h 6.9mph /  11.1km/h 56% 0in /  0.0mm CLR
21:00 66 °F /  18.9 °C 50.4 °F /  10.2 °C 30.2in /  1022.2hPa NE 6mph /  9.7km/h 12mph /  19.3km/h 57% 0in /  0.0mm CLR
21:05 65.7 °F /  18.7 °C 50 °F /  10.0 °C 30.2in /  1022.3hPa NE 6.2mph /  10.0km/h 11.5mph /  18.5km/h 57% 0in /  0.0mm CLR
21:10 65.1 °F /  18.4 °C 50 °F /  10.0 °C 30.2in /  1022.3hPa NNE 6.9mph /  11.1km/h 9.2mph /  14.8km/h 58% 0in /  0.0mm CLR
21:15 64.9 °F /  18.3 °C 50.4 °F /  10.2 °C 30.2in /  1022.3hPa NNE 6.9mph /  11.1km/h 11.5mph /  18.5km/h 59% 0in /  0.0mm CLR
21:20 64.6 °F /  18.1 °C 49.8 °F /  9.9 °C 30.2in /  1022.5hPa NE 6.4mph /  10.3km/h 10.4mph /  16.7km/h 59% 0in /  0.0mm CLR
21:25 64.2 °F /  17.9 °C 50 °F /  10.0 °C 30.2in /  1022.5hPa NE 6.4mph /  10.3km/h 10.4mph /  16.7km/h 60% 0in /  0.0mm CLR
21:30 64 °F /  17.8 °C 49.8 °F /  9.9 °C 30.2in /  1022.5hPa NE 7.4mph /  11.9km/h 10.4mph /  16.7km/h 60% 0in /  0.0mm CLR
21:35 63.7 °F /  17.6 °C 50 °F /  10.0 °C 30.2in /  1022.6hPa NE 7.4mph /  11.9km/h 15mph /  24.1km/h 61% 0in /  0.0mm CLR
21:40 63.3 °F /  17.4 °C 50.2 °F /  10.1 °C 30.2in /  1022.6hPa NE 8.1mph /  13.0km/h 11.8mph /  19.0km/h 62% 0in /  0.0mm CLR
21:45 63.1 °F /  17.3 °C 50.4 °F /  10.2 °C 30.2in /  1022.6hPa NE 8.1mph /  13.0km/h 9.2mph /  14.8km/h 63% 0in /  0.0mm CLR
21:50 62.8 °F /  17.1 °C 50.4 °F /  10.2 °C 30.2in /  1022.7hPa NE 6.9mph /  11.1km/h 8.5mph /  13.7km/h 64% 0in /  0.0mm CLR
21:55 62.4 °F /  16.9 °C 50.5 °F /  10.3 °C 30.2in /  1022.7hPa North 6.9mph /  11.1km/h 9.2mph /  14.8km/h 65% 0in /  0.0mm CLR
22:00 62.2 °F /  16.8 °C 50.7 °F /  10.4 °C 30.2in /  1022.7hPa NE 6mph /  9.7km/h 10mph /  16.1km/h 66% 0in /  0.0mm CLR
22:05 62.1 °F /  16.7 °C 51.1 °F /  10.6 °C 30.2in /  1022.9hPa NE 6.2mph /  10.0km/h 10.4mph /  16.7km/h 67% 0in /  0.0mm CLR
22:10 61.9 °F /  16.6 °C 50.7 °F /  10.4 °C 30.2in /  1022.9hPa NE 5.9mph /  9.5km/h 5.8mph /  9.3km/h 67% 0in /  0.0mm CLR
22:15 61.5 °F /  16.4 °C 50.9 °F /  10.5 °C 30.2in /  1022.9hPa NE 5.9mph /  9.5km/h 8.1mph /  13.0km/h 68% 0in /  0.0mm CLR
22:20 61.5 °F /  16.4 °C 50.9 °F /  10.5 °C 30.2in /  1023.2hPa NE 5.2mph /  8.4km/h 9.2mph /  14.8km/h 68% 0in /  0.0mm CLR
22:25 61.3 °F /  16.3 °C 51.1 °F /  10.6 °C 30.2in /  1023.2hPa NE 5.2mph /  8.4km/h 6.9mph /  11.1km/h 69% 0in /  0.0mm CLR
22:30 61.2 °F /  16.2 °C 50.9 °F /  10.5 °C 30.2in /  1023.2hPa NE 5.2mph /  8.4km/h 9.2mph /  14.8km/h 69% 0in /  0.0mm CLR
22:35 60.8 °F /  16.0 °C 51.1 °F /  10.6 °C 30.2in /  1023.4hPa NE 5.2mph /  8.4km/h 8.1mph /  13.0km/h 70% 0in /  0.0mm CLR
22:40 60.6 °F /  15.9 °C 51.3 °F /  10.7 °C 30.2in /  1023.4hPa NNE 5.9mph /  9.5km/h 6.9mph /  11.1km/h 71% 0in /  0.0mm CLR
22:45 60.4 °F /  15.8 °C 51.1 °F /  10.6 °C 30.2in /  1023.4hPa NE 5.9mph /  9.5km/h 8.1mph /  13.0km/h 71% 0in /  0.0mm CLR
22:50 60.4 °F /  15.8 °C 51.1 °F /  10.6 °C 30.2in /  1023.5hPa NNE 5.4mph /  8.7km/h 6.9mph /  11.1km/h 71% 0in /  0.0mm CLR
22:55 60.3 °F /  15.7 °C 50.7 °F /  10.4 °C 30.2in /  1023.5hPa NE 5.4mph /  8.7km/h 8.1mph /  13.0km/h 71% 0in /  0.0mm CLR
23:00 60.3 °F /  15.7 °C 50.7 °F /  10.4 °C 30.2in /  1023.5hPa NE 6mph /  9.7km/h 10mph /  16.1km/h 71% 0in /  0.0mm CLR
23:05 60.1 °F /  15.6 °C 51.1 °F /  10.6 °C 30.2in /  1023.5hPa NNE 5.4mph /  8.7km/h 6.9mph /  11.1km/h 72% 0in /  0.0mm CLR
23:10 59.7 °F /  15.4 °C 50.7 °F /  10.4 °C 30.2in /  1023.5hPa NNE 5.9mph /  9.5km/h 6.9mph /  11.1km/h 72% 0in /  0.0mm CLR
23:15 59.7 °F /  15.4 °C 50.7 °F /  10.4 °C 30.2in /  1023.5hPa NE 5.9mph /  9.5km/h 6.9mph /  11.1km/h 72% 0in /  0.0mm CLR
23:20 59.7 °F /  15.4 °C 50.4 °F /  10.2 °C 30.2in /  1023.5hPa NE 5.4mph /  8.7km/h 6.9mph /  11.1km/h 71% 0in /  0.0mm CLR
23:25 59.7 °F /  15.4 °C 49.8 °F /  9.9 °C 30.2in /  1023.5hPa NE 5.4mph /  8.7km/h 6.9mph /  11.1km/h 70% 0in /  0.0mm CLR
23:30 59.7 °F /  15.4 °C 49.8 °F /  9.9 °C 30.2in /  1023.5hPa NE 4.7mph /  7.6km/h 6.9mph /  11.1km/h 70% 0in /  0.0mm CLR
23:35 59.7 °F /  15.4 °C 50.4 °F /  10.2 °C 30.2in /  1023.6hPa NNE 4.7mph /  7.6km/h 5.9mph /  9.5km/h 71% 0in /  0.0mm CLR
23:40 59.7 °F /  15.4 °C 50.4 °F /  10.2 °C 30.2in /  1023.6hPa NE 4.7mph /  7.6km/h 5.8mph /  9.3km/h 71% 0in /  0.0mm CLR
23:45 59.5 °F /  15.3 °C 50.2 °F /  10.1 °C 30.2in /  1023.6hPa NE 4.7mph /  7.6km/h 6.2mph /  10.0km/h 71% 0in /  0.0mm CLR
23:50 59.4 °F /  15.2 °C 50.4 °F /  10.2 °C 30.2in /  1023.6hPa NE 4.3mph /  6.9km/h 6.9mph /  11.1km/h 72% 0in /  0.0mm CLR
23:55 59.2 °F /  15.1 °C 50.2 °F /  10.1 °C 30.2in /  1023.6hPa NE 4.3mph /  6.9km/h 6.9mph /  11.1km/h 72% 0in /  0.0mm CLR
Murcia-Puente Tocinos, España
Compliments of Weather Underground - 2.75 mb

La estación de MeteoMurcia.com, publica sus datos en los siguientes proyectos:

Weather Underground PWS IMURCIAP2 Meteoclimatic www.awekas.at

W3Counter
Web Analytics